Kenora Airport
CYQK : now visible

Airfield :











YOU CAN JOIN US ON...

 
LOGIN :

Register | Disclaimer

   EN    FR    IT 

 









Legend :    VFR   Marginal VFR   IFR   Intensive IFR   Very Intensive IFR
Visi :
Ceiling :
>= 8 km
>= 3000ft
5 to 8 km
1000 to 3000 ft
1500m to 5 km
500 to 1000 ft
800 to 1500m
200 to 500 ft
< 800m
< 200 ft
Symbols :   Thunderstorms  Fog  Heavy snow  Heavy precipitations  Wind > 20 kt






- Airport Elevation : 1332 ft
- IATA code : YQK


CYQK - Kenora

CURRENT METAR :
  • 260600Z 24008KT 20SM BKN011 OVC033 07/06 A2967 RMK SC5SC3 SLP062

EXPIRED METARs :
  • 260500Z 26012G17KT 20SM SCT018 OVC035 07/05 A2967 RMK SC4SC4 SLP061
  • 260400Z 23009KT 20SM SCT024 OVC038 07/06 A2968 RMK SC4SC4 SLP063
  • 260300Z 23008KT 20SM OVC012 08/06 A2967 RMK SC8 SLP061
  • 260200Z 23011KT 20SM BKN014 OVC022 07/06 A2965 RMK SC6SC2 SLP054
  • 260143Z 23009KT 20SM BKN013 BKN074 OVC120 07/06 A2964 RMK SC5AC2AC1 SLP052

TAF AMD TAF CYQK
Valid from the 26 at 04:00 until the 26 at 14:00 UTC


260416Z 2604/2614 24008KT P6SM SCT020 OVC040
TEMPO 2604/2614 BKN012 OVC020
PROB30 2605/2612 5SM -DZ BR OVC007 RMK NXT FCST BY 260800Z
CZWG FIR / North America



MET'MAP, your aeronautical weather chart ! - Copyright ORBIFLY December 2007 - Disclaimer

ORBIFLY MET'MAP TEAM :

Programming & Development : Alexandra Zaïnal
Original concept : Baudouin d'Aumeries
Technical & hardware support : Manuel Goepfert
Assistance : Marc-Olivier Méhu




SOURCES & CREDITS :

   NOAA       Earth
Advisory